Time;durP1;ratioP1;P1;durP2;ratioP2;P2;SDS_P1;SDS_P2;PMS_P1;PMS_P2;Temp;Humidity;BMP_temperature;BMP_pressure;BME280_temperature;BME280_humidity;BME280_pressure;Samples;Min_cycle;Max_cycle;Signal;HPM_P1;HPM_P2
2022/07/12 05:33:06;;;;;;;;;6.00;6.00;;;;;23.06;54.27;101969.59;5072357;27;45677;-81
2022/07/12 05:35:31;;;;;;;;;5.00;5.00;;;;;23.16;53.68;101970.47;5068919;27;45803;-79
2022/07/12 05:37:56;;;;;;;;;6.00;5.67;;;;;23.35;52.91;101977.88;5074579;27;45334;-82
2022/07/12 05:40:22;;;;;;;;;5.00;4.67;;;;;23.58;52.98;101971.38;5070423;27;48978;-83
2022/07/12 05:42:47;;;;;;;;;5.00;5.00;;;;;23.80;52.29;101970.25;5070576;27;46637;-86
2022/07/12 05:45:12;;;;;;;;;4.00;4.00;;;;;24.06;51.83;101981.41;5075483;27;45471;-81
2022/07/12 05:47:38;;;;;;;;;5.67;5.67;;;;;24.32;51.15;101985.44;5068496;27;45837;-81
2022/07/12 05:50:04;;;;;;;;;6.00;5.67;;;;;24.55;50.67;101982.41;5073150;27;45552;-82
2022/07/12 05:55:14;;;;;;;;;5.00;5.00;;;;;25.02;50.02;101997.91;5066190;27;45431;-92
2022/07/12 05:57:39;;;;;;;;;5.33;5.33;;;;;25.22;49.53;101995.94;5071013;27;45555;-92
2022/07/12 06:00:05;;;;;;;;;5.00;5.00;;;;;25.38;49.17;101992.59;5074320;27;45698;-87
2022/07/12 06:02:30;;;;;;;;;5.00;5.00;;;;;25.57;48.83;101998.94;5067971;27;46319;-83
2022/07/12 06:04:55;;;;;;;;;5.00;5.00;;;;;25.72;48.35;101996.59;5070614;27;47858;-87
2022/07/12 06:07:21;;;;;;;;;4.00;4.00;;;;;25.87;48.25;101993.34;5065000;27;45395;-88
2022/07/12 06:09:46;;;;;;;;;6.00;6.00;;;;;25.98;47.59;101995.81;5060927;28;48568;-92
2022/07/12 06:12:12;;;;;;;;;4.67;4.67;;;;;26.13;47.44;102008.88;5065986;27;47170;-85
2022/07/12 06:14:37;;;;;;;;;5.00;5.00;;;;;26.23;46.86;102000.66;5069786;28;45656;-87
2022/07/12 06:17:03;;;;;;;;;6.00;6.00;;;;;26.37;46.78;102018.31;5080841;27;45530;-83
2022/07/12 06:19:28;;;;;;;;;6.67;5.00;;;;;26.47;46.91;102004.59;5067969;28;45447;-88
2022/07/12 06:21:54;;;;;;;;;5.00;5.00;;;;;26.53;46.22;102002.09;5068603;27;46331;-84
2022/07/12 06:24:19;;;;;;;;;5.00;5.00;;;;;26.57;46.19;102003.47;5065537;27;45466;-82
2022/07/12 06:26:44;;;;;;;;;6.00;6.00;;;;;26.67;46.13;102003.41;5066676;28;45500;-82
2022/07/12 06:29:10;;;;;;;;;4.33;4.33;;;;;26.74;45.99;102009.06;5067703;28;45541;-82
2022/07/12 06:31:35;;;;;;;;;5.00;5.00;;;;;26.80;45.87;102005.69;5066075;27;46087;-83
2022/07/12 06:34:00;;;;;;;;;6.00;5.00;;;;;26.86;45.48;102014.22;5063452;28;45597;-90
2022/07/12 06:36:26;;;;;;;;;6.67;6.00;;;;;26.86;45.57;102008.78;5067295;27;45876;-86
2022/07/12 06:38:51;;;;;;;;;7.00;6.00;;;;;26.92;45.50;102009.00;5070067;27;45426;-81
2022/07/12 06:41:16;;;;;;;;;5.00;5.00;;;;;26.96;45.07;102010.41;5068227;27;50393;-87
2022/07/12 06:43:42;;;;;;;;;5.00;5.00;;;;;27.03;45.15;102013.34;5059175;28;45380;-93
2022/07/12 06:46:07;;;;;;;;;5.33;5.33;;;;;27.05;44.68;102005.88;5054570;28;45573;-88
2022/07/12 06:48:33;;;;;;;;;7.00;5.33;;;;;27.10;44.90;102010.84;5053566;28;45469;-84
2022/07/12 06:50:58;;;;;;;;;4.00;4.00;;;;;27.15;45.24;102007.63;5055724;28;46632;-84
2022/07/12 06:53:23;;;;;;;;;7.00;7.00;;;;;27.20;44.44;102011.56;5052376;28;45445;-88
2022/07/12 06:55:49;;;;;;;;;6.00;6.00;;;;;27.21;44.41;102017.84;5054924;28;45420;-85
2022/07/12 06:58:14;;;;;;;;;6.00;6.00;;;;;27.27;44.44;102017.22;5051292;28;45586;-89
2022/07/12 07:00:39;;;;;;;;;7.67;6.67;;;;;27.30;45.06;102022.34;5047068;28;48233;-77
2022/07/12 07:03:08;;;;;;;;;5.67;5.67;;;;;27.29;44.48;102006.13;5055223;28;45317;-78
2022/07/12 07:05:34;;;;;;;;;5.67;5.67;;;;;27.35;44.30;102017.25;5053870;28;45481;-78
2022/07/12 07:07:59;;;;;;;;;6.33;5.00;;;;;27.39;44.96;102023.25;5055550;28;45498;-78
2022/07/12 07:10:25;;;;;;;;;7.33;5.67;;;;;27.41;44.83;102029.38;5054953;28;47025;-77
2022/07/12 07:12:50;;;;;;;;;5.00;5.00;;;;;27.47;44.32;102028.69;5054180;28;45304;-78
2022/07/12 07:15:16;;;;;;;;;4.67;4.67;;;;;27.51;44.08;102026.53;5055159;28;45521;-77
2022/07/12 07:17:42;;;;;;;;;7.67;6.00;;;;;27.54;44.84;102023.44;5050181;28;45553;-78
2022/07/12 07:20:09;;;;;;;;;4.67;4.67;;;;;27.56;44.46;102017.84;5054942;28;46114;-78
2022/07/12 07:22:34;;;;;;;;;5.00;5.00;;;;;27.63;44.42;102024.38;5056745;28;45510;-77
2022/07/12 07:25:00;;;;;;;;;6.33;6.33;;;;;27.69;43.89;102025.56;5052225;28;45702;-77
2022/07/12 07:27:25;;;;;;;;;5.00;5.00;;;;;27.73;44.40;102026.94;5045886;28;45612;-78
2022/07/12 07:32:34;;;;;;;;;6.00;6.00;;;;;27.84;43.73;102032.09;5045968;28;45383;-78
2022/07/12 07:34:59;;;;;;;;;5.00;5.00;;;;;27.91;43.71;102036.91;5043278;28;45540;-77
2022/07/12 07:37:25;;;;;;;;;5.67;5.33;;;;;27.94;43.44;102045.59;5044294;28;45418;-78
2022/07/12 07:39:50;;;;;;;;;5.33;5.33;;;;;27.99;43.85;102043.22;5044542;28;45716;-78
2022/07/12 07:42:16;;;;;;;;;7.00;7.00;;;;;28.04;43.87;102036.41;5039107;28;45845;-79
2022/07/12 07:44:41;;;;;;;;;4.33;4.33;;;;;28.08;43.67;102032.31;5043892;28;45460;-77
2022/07/12 07:47:07;;;;;;;;;5.00;5.00;;;;;28.10;43.25;102042.03;5041513;28;45381;-77
2022/07/12 07:49:32;;;;;;;;;8.00;6.33;;;;;28.14;43.16;102043.41;5039069;28;51805;-77
2022/07/12 07:51:57;;;;;;;;;7.67;7.00;;;;;28.16;43.74;102037.78;5043582;28;45475;-78
2022/07/12 07:54:23;;;;;;;;;7.00;7.00;;;;;28.17;43.25;102038.63;5041670;28;52057;-76
2022/07/12 07:56:48;;;;;;;;;5.00;5.00;;;;;28.19;43.31;102031.97;5036692;28;45417;-76
2022/07/12 07:59:13;;;;;;;;;4.67;4.67;;;;;28.25;43.30;102039.50;5040215;28;46358;-75
2022/07/12 08:01:42;;;;;;;;;7.67;6.00;;;;;28.30;42.92;102052.66;5038869;28;45470;-76
2022/07/12 08:04:17;;;;;;;;;7.00;7.00;;;;;28.34;42.87;102048.59;5038385;28;45877;-75
2022/07/12 08:06:42;;;;;;;;;5.67;5.67;;;;;28.37;42.73;102041.94;5041578;28;45492;-75
2022/07/12 08:09:08;;;;;;;;;6.00;5.00;;;;;28.39;43.38;102046.19;5038483;28;45336;-75
2022/07/12 08:11:35;;;;;;;;;6.00;6.00;;;;;28.41;42.83;102046.88;5042825;28;45521;-75
2022/07/12 08:14:01;;;;;;;;;6.00;6.00;;;;;28.44;42.51;102045.66;5038775;28;45380;-75
2022/07/12 08:16:26;;;;;;;;;6.00;6.00;;;;;28.46;43.01;102048.22;5041921;28;45431;-75
2022/07/12 08:18:53;;;;;;;;;7.00;7.00;;;;;28.48;43.16;102048.94;5037641;28;46181;-78
2022/07/12 08:21:18;;;;;;;;;7.00;7.00;;;;;28.47;42.89;102034.41;5039191;28;45562;-77
2022/07/12 08:23:44;;;;;;;;;5.00;5.00;;;;;28.57;43.13;102047.03;5036994;28;45523;-76
2022/07/12 08:26:09;;;;;;;;;6.67;5.67;;;;;28.62;43.17;102042.78;5042158;28;45506;-76
2022/07/12 08:28:34;;;;;;;;;3.00;3.00;;;;;28.69;42.83;102050.28;5038101;28;45521;-75
2022/07/12 08:31:00;;;;;;;;;6.33;6.33;;;;;28.72;43.09;102048.03;5038000;28;45514;-77
2022/07/12 08:33:25;;;;;;;;;5.67;5.67;;;;;28.77;42.58;102053.00;5040055;28;45429;-74
2022/07/12 08:35:51;;;;;;;;;5.67;5.67;;;;;28.80;42.42;102050.78;5053975;28;45659;-75
2022/07/12 08:38:16;;;;;;;;;6.00;4.67;;;;;28.85;42.11;102043.94;5061066;28;50069;-74
2022/07/12 08:40:42;;;;;;;;;6.33;6.33;;;;;28.87;42.31;102039.13;5052274;27;45562;-75
2022/07/12 08:43:08;;;;;;;;;5.00;5.00;;;;;28.90;41.92;102044.31;5058832;28;45573;-78
2022/07/12 08:45:33;;;;;;;;;5.67;5.67;;;;;28.91;41.85;102038.66;5056933;28;45646;-78
2022/07/12 08:47:58;;;;;;;;;7.00;7.00;;;;;28.89;41.39;102042.59;5054567;28;45629;-79
2022/07/12 08:50:25;;;;;;;;;6.00;6.00;;;;;28.90;41.56;102045.13;5060392;28;45523;-79
2022/07/12 08:52:52;;;;;;;;;5.00;5.00;;;;;28.87;41.78;102036.41;5057024;27;45593;-78
2022/07/12 08:55:26;;;;;;;;;5.67;5.67;;;;;28.92;41.49;102047.69;5059597;28;45490;-79
2022/07/12 08:57:54;;;;;;;;;5.33;5.33;;;;;28.92;41.55;102042.22;5054747;28;46693;-77
2022/07/12 09:00:20;;;;;;;;;7.67;6.33;;;;;28.92;41.68;102042.22;5058334;28;46390;-75
2022/07/12 09:02:51;;;;;;;;;5.00;5.00;;;;;28.93;41.63;102042.06;5053225;28;46738;-79
2022/07/12 09:05:19;;;;;;;;;6.00;6.00;;;;;28.96;41.35;102038.13;5055813;28;45360;-76
2022/07/12 09:07:45;;;;;;;;;5.67;5.67;;;;;28.97;41.59;102036.25;5049796;28;45475;-76
2022/07/12 09:10:12;;;;;;;;;6.00;6.00;;;;;28.92;41.61;102026.72;5053049;28;45888;-76
2022/07/12 09:12:40;;;;;;;;;7.33;4.67;;;;;28.98;42.14;102037.97;5051347;28;45463;-76
2022/07/12 09:15:19;;;;;;;;;7.00;7.00;;;;;28.98;41.41;102027.88;5053552;28;45433;-76
2022/07/12 09:18:04;;;;;;;;;5.67;5.33;;;;;29.01;42.19;102041.19;5052875;28;46320;-77
2022/07/12 09:20:34;;;;;;;;;6.67;6.67;;;;;29.04;41.68;102035.38;5052172;28;45502;-74
2022/07/12 09:23:11;;;;;;;;;6.00;6.00;;;;;29.10;41.78;102035.72;5052375;28;45473;-75
2022/07/12 09:25:38;;;;;;;;;5.00;5.00;;;;;29.14;41.90;102037.91;5054484;28;45353;-76
2022/07/12 09:28:08;;;;;;;;;3.67;3.67;;;;;29.18;41.53;102038.44;5051427;28;47829;-75
2022/07/12 09:30:37;;;;;;;;;5.00;5.00;;;;;29.21;42.33;102034.50;5054078;28;45397;-78
2022/07/12 09:36:06;;;;;;;;;4.00;4.00;;;;;29.29;41.76;102040.78;5053565;28;45689;-75
2022/07/12 09:38:47;;;;;;;;;7.00;5.00;;;;;29.32;42.18;102036.81;5050662;28;45445;-76
2022/07/12 09:41:18;;;;;;;;;6.00;4.00;;;;;29.35;41.82;102041.09;5054034;28;45497;-76
2022/07/12 09:43:44;;;;;;;;;5.00;5.00;;;;;29.36;41.83;102040.91;5046483;28;45536;-76
2022/07/12 09:46:10;;;;;;;;;6.00;5.00;;;;;29.38;41.99;102038.00;5050963;28;46520;-76
2022/07/12 09:48:37;;;;;;;;;5.67;5.67;;;;;29.39;41.64;102043.28;5052638;28;46087;-76
2022/07/12 09:51:04;;;;;;;;;6.67;6.33;;;;;29.40;42.24;102038.66;5045126;28;45557;-76
2022/07/12 09:53:33;;;;;;;;;5.00;5.00;;;;;29.39;41.67;102037.81;5037917;28;46010;-78
2022/07/12 09:56:03;;;;;;;;;7.33;5.33;;;;;29.40;41.23;102038.66;5040381;28;45717;-82
2022/07/12 09:58:47;;;;;;;;;5.00;5.00;;;;;29.42;40.95;102042.09;5039656;28;46213;-83
2022/07/12 10:01:15;;;;;;;;;4.67;4.67;;;;;29.45;40.87;102036.25;5041825;28;45538;-81
2022/07/12 10:03:42;;;;;;;;;5.00;3.67;;;;;29.45;41.14;102041.72;5046708;28;45682;-81
2022/07/12 10:06:09;;;;;;;;;4.00;4.00;;;;;29.42;41.27;102029.25;5038690;28;45516;-82
2022/07/12 10:08:35;;;;;;;;;4.00;4.00;;;;;29.42;41.64;102034.72;5042033;28;46081;-80
2022/07/12 10:11:01;;;;;;;;;4.00;4.00;;;;;29.41;41.59;102037.63;5035995;28;45380;-83
2022/07/12 10:13:27;;;;;;;;;3.67;3.67;;;;;29.41;41.51;102035.75;5038908;28;45464;-82
2022/07/12 10:15:59;;;;;;;;;4.00;4.00;;;;;29.40;41.54;102028.59;5039091;28;45536;-82
2022/07/12 10:18:25;;;;;;;;;2.33;2.33;;;;;29.39;41.63;102026.88;5042759;28;46435;-82
2022/07/12 10:20:50;;;;;;;;;5.00;5.00;;;;;29.38;40.99;102035.28;5052216;28;45665;-82
2022/07/12 10:23:36;;;;;;;;;3.00;3.00;;;;;29.37;41.72;102036.28;5049353;28;45696;-82
2022/07/12 10:26:14;;;;;;;;;3.00;3.00;;;;;29.35;41.41;102033.75;5041231;28;45689;-83
2022/07/12 10:29:06;;;;;;;;;4.33;4.33;;;;;29.32;40.85;102039.56;5043485;28;46410;-83
2022/07/12 10:31:40;;;;;;;;;2.00;2.00;;;;;29.28;41.09;102032.75;5034662;28;45894;-83
2022/07/12 10:34:21;;;;;;;;;4.00;4.00;;;;;29.29;40.97;102038.03;5042712;28;47316;-83
2022/07/12 10:36:55;;;;;;;;;6.00;6.00;;;;;29.27;41.10;102040.09;5043983;28;45646;-83
2022/07/12 10:39:25;;;;;;;;;3.00;3.00;;;;;29.25;41.17;102033.06;5041719;28;46351;-83
2022/07/12 10:42:15;;;;;;;;;5.00;5.00;;;;;29.28;41.11;102039.06;5044681;28;46086;-84
2022/07/12 10:44:45;;;;;;;;;4.00;3.33;;;;;29.28;41.22;102032.75;5061497;27;45596;-82
2022/07/12 10:47:13;;;;;;;;;6.67;5.00;;;;;29.29;41.04;102028.97;5041663;28;47202;-84
2022/07/12 10:49:45;;;;;;;;;4.00;4.00;;;;;29.28;40.97;102032.75;5036097;28;46065;-83
2022/07/12 10:52:10;;;;;;;;;6.00;4.00;;;;;29.26;40.96;102021.13;5038827;28;45558;-83
2022/07/12 10:54:42;;;;;;;;;4.33;4.33;;;;;29.26;41.29;102023.88;5047491;28;47112;-83
2022/07/12 10:57:08;;;;;;;;;4.00;4.00;;;;;29.26;40.90;102023.88;5068141;28;45474;-83
2022/07/12 10:59:36;;;;;;;;;5.00;5.00;;;;;29.24;41.47;102018.56;5035056;28;45982;-82
2022/07/12 11:02:02;;;;;;;;;5.00;5.00;;;;;29.25;41.22;102023.00;5052834;28;45622;-83
2022/07/12 11:04:28;;;;;;;;;4.00;4.00;;;;;29.25;40.77;102011.22;5055408;28;45539;-82
2022/07/12 11:06:58;;;;;;;;;8.00;5.00;;;;;29.25;40.92;102016.69;5044298;28;45514;-84
2022/07/12 11:09:24;;;;;;;;;5.67;3.67;;;;;29.26;41.32;102015.66;5035238;28;47764;-82
2022/07/12 11:11:51;;;;;;;;;4.00;4.00;;;;;29.26;41.39;102015.66;5034925;28;45557;-82
2022/07/12 11:14:32;;;;;;;;;5.00;5.00;;;;;29.24;41.45;102004.91;5036386;28;45721;-83
2022/07/12 11:16:59;;;;;;;;;3.67;3.00;;;;;29.26;40.99;102021.97;5035484;28;45946;-82
2022/07/12 11:19:28;;;;;;;;;4.00;4.00;;;;;29.28;41.38;102008.13;5043318;28;46136;-82
2022/07/12 11:21:57;;;;;;;;;4.00;4.00;;;;;29.29;40.97;102013.44;5044136;28;45601;-83
2022/07/12 11:24:23;;;;;;;;;6.00;4.50;;;;;29.30;41.47;102019.75;5040700;28;45606;-82
2022/07/12 11:26:49;;;;;;;;;6.67;5.00;;;;;29.31;40.75;102018.72;5038457;28;45853;-83
2022/07/12 11:29:15;;;;;;;;;5.00;5.00;;;;;29.31;41.26;102008.63;5040840;28;46216;-82
2022/07/12 11:31:41;;;;;;;;;3.00;3.00;;;;;29.31;41.32;102016.00;5040194;28;45471;-85
2022/07/12 11:34:07;;;;;;;;;4.67;3.67;;;;;29.31;40.91;102014.09;5043033;28;45619;-90
2022/07/12 11:36:33;;;;;;;;;5.00;5.00;;;;;29.31;41.10;102007.78;5043360;28;47056;-81
2022/07/12 11:39:00;;;;;;;;;6.00;6.00;;;;;29.31;41.20;102013.25;5052225;28;45673;-81
2022/07/12 11:41:25;;;;;;;;;4.67;4.67;;;;;29.31;41.15;102014.09;5053135;28;45789;-86
2022/07/12 11:43:51;;;;;;;;;5.00;5.00;;;;;29.31;40.67;102014.09;5041806;28;45470;-83
2022/07/12 11:46:16;;;;;;;;;7.00;5.33;;;;;29.22;40.68;102011.59;5042074;28;45502;-81
2022/07/12 11:48:42;;;;;;;;;4.33;4.33;;;;;29.09;40.84;102006.69;5042256;28;47300;-80
2022/07/12 11:51:12;;;;;;;;;6.00;5.67;;;;;28.97;41.18;102001.56;5055120;28;46317;-80
2022/07/12 11:53:40;;;;;;;;;5.00;5.00;;;;;28.83;41.39;101999.53;5043112;28;46076;-81
2022/07/12 11:56:07;;;;;;;;;5.00;5.00;;;;;28.74;42.06;101999.56;5053556;28;45375;-81
2022/07/12 11:58:34;;;;;;;;;6.00;4.67;;;;;28.64;41.44;101987.94;5047176;28;46078;-80
2022/07/12 12:01:00;;;;;;;;;6.67;5.67;;;;;28.53;42.39;101987.28;5043976;28;45687;-79
2022/07/12 12:03:26;;;;;;;;;5.67;5.67;;;;;28.46;42.63;101980.84;5046020;28;45742;-80
2022/07/12 12:05:53;;;;;;;;;4.67;4.67;;;;;28.39;42.40;101994.31;5046993;28;46082;-77
2022/07/12 12:08:19;;;;;;;;;6.33;6.33;;;;;28.28;42.94;101991.91;5051746;28;47139;-79
2022/07/12 12:10:55;;;;;;;;;7.67;6.00;;;;;28.20;43.70;101986.44;5054469;28;45630;-77
2022/07/12 12:13:21;;;;;;;;;8.00;8.00;;;;;28.11;43.13;101991.88;5054621;28;45483;-75
2022/07/12 12:16:08;;;;;;;;;6.67;6.00;;;;;28.06;43.42;101987.94;5054881;28;46381;-76
2022/07/12 12:18:35;;;;;;;;;6.33;6.33;;;;;28.01;43.20;101983.88;5054804;28;46954;-76
2022/07/12 12:21:07;;;;;;;;;9.00;6.00;;;;;27.97;43.70;101984.38;5054694;28;45476;-77
2022/07/12 12:23:34;;;;;;;;;8.00;7.00;;;;;27.96;43.92;101985.41;5050723;28;45550;-77
2022/07/12 12:26:20;;;;;;;;;8.00;8.00;;;;;27.94;43.58;101977.38;5046268;28;45676;-80
2022/07/12 12:28:51;;;;;;;;;7.00;5.67;;;;;27.92;44.20;101973.13;5040581;28;46531;-76
2022/07/12 12:31:21;;;;;;;;;7.67;7.67;;;;;27.89;44.06;101971.56;5043647;28;45548;-77
2022/07/12 12:33:51;;;;;;;;;10.00;8.00;;;;;27.90;44.35;101972.44;5042706;28;45791;-77
2022/07/12 12:36:24;;;;;;;;;8.33;7.00;;;;;27.87;43.95;101963.56;5052511;28;45423;-76
2022/07/12 12:38:56;;;;;;;;;4.67;4.00;;;;;27.88;43.65;101970.72;5046080;28;46081;-75
2022/07/12 12:41:23;;;;;;;;;7.00;5.00;;;;;27.85;44.25;101968.34;5042005;28;45562;-76
2022/07/12 12:44:03;;;;;;;;;6.33;6.33;;;;;27.82;44.00;101948.72;5054360;28;45642;-77
2022/07/12 12:46:46;;;;;;;;;5.67;5.00;;;;;27.88;44.29;101967.16;5052840;28;45446;-77
2022/07/12 12:49:12;;;;;;;;;7.00;7.00;;;;;27.87;43.51;101963.56;5051199;28;46364;-77
2022/07/12 12:51:52;;;;;;;;;7.33;7.33;;;;;27.88;43.78;101957.06;5070470;27;45588;-77
2022/07/12 12:54:37;;;;;;;;;4.33;4.33;;;;;27.88;43.89;101950.78;5048052;28;46602;-78
2022/07/12 12:57:04;;;;;;;;;5.00;5.00;;;;;27.88;43.61;101951.63;5066692;28;45481;-76
2022/07/12 12:59:31;;;;;;;;;7.00;5.00;;;;;27.91;43.94;101950.44;5053294;28;46353;-76
2022/07/12 13:01:56;;;;;;;;;5.67;5.00;;;;;27.91;44.37;101953.16;5054093;28;45530;-76
2022/07/12 13:04:21;;;;;;;;;6.00;6.00;;;;;27.95;44.35;101945.50;5051470;28;45407;-77
2022/07/12 13:06:47;;;;;;;;;5.67;5.67;;;;;27.96;43.50;101945.31;5052745;28;45816;-77
2022/07/12 13:09:12;;;;;;;;;5.33;4.00;;;;;27.98;44.00;101951.47;5048339;28;45902;-77
2022/07/12 13:11:38;;;;;;;;;5.33;3.00;;;;;27.98;43.77;101942.41;5051396;28;47102;-76
2022/07/12 13:14:03;;;;;;;;;5.67;5.67;;;;;27.96;43.90;101942.59;5053355;28;45631;-76
2022/07/12 13:16:28;;;;;;;;;5.67;5.67;;;;;27.96;44.07;101945.31;5069601;28;45427;-76
2022/07/12 13:18:54;;;;;;;;;5.33;4.67;;;;;27.95;43.73;101938.16;5052161;28;46231;-76
2022/07/12 13:21:19;;;;;;;;;4.00;4.00;;;;;27.94;43.53;101935.59;5053518;28;45390;-77
2022/07/12 13:23:44;;;;;;;;;5.00;4.67;;;;;27.90;44.08;101928.78;5053966;28;45367;-76
2022/07/12 13:26:10;;;;;;;;;6.00;6.00;;;;;27.86;44.19;101926.41;5053511;28;45451;-76
2022/07/12 13:28:35;;;;;;;;;5.00;5.00;;;;;27.83;43.75;101928.63;5052213;28;45477;-77
2022/07/12 13:31:01;;;;;;;;;5.33;5.33;;;;;27.86;44.49;101939.16;5053608;28;45701;-82
2022/07/12 13:33:26;;;;;;;;;5.00;4.33;;;;;27.86;43.99;101939.16;5052383;28;46059;-86
2022/07/12 13:35:51;;;;;;;;;4.67;4.00;;;;;27.86;44.29;101928.25;5051208;28;47101;-83
2022/07/12 13:38:17;;;;;;;;;7.33;5.00;;;;;27.88;44.45;101924.34;5051607;28;46973;-78
2022/07/12 13:40:42;;;;;;;;;4.00;4.00;;;;;27.86;44.38;101920.94;5052581;28;45504;-79
2022/07/12 13:43:07;;;;;;;;;7.00;7.00;;;;;27.88;44.52;101926.22;5051317;28;45748;-79
2022/07/12 13:45:33;;;;;;;;;3.33;1.00;;;;;27.87;44.49;101921.78;5052596;28;45519;-78
2022/07/12 13:48:00;;;;;;;;;5.00;5.00;;;;;27.86;44.33;101917.34;5051942;28;45575;-79
2022/07/12 13:50:25;;;;;;;;;4.67;4.67;;;;;27.85;44.47;101923.81;5047979;28;45387;-78
2022/07/12 13:52:51;;;;;;;;;7.00;5.00;;;;;27.84;43.91;101922.97;5054553;28;45507;-78
2022/07/12 13:55:17;;;;;;;;;5.33;4.00;;;;;27.85;44.39;101921.09;5055569;28;45376;-79
2022/07/12 13:57:44;;;;;;;;;4.00;3.67;;;;;27.87;44.38;101919.03;5056640;28;46786;-80
2022/07/12 14:00:11;;;;;;;;;3.33;3.33;;;;;27.88;44.13;101931.69;5057033;28;45485;-79
2022/07/12 14:02:38;;;;;;;;;4.67;4.67;;;;;27.90;43.69;101924.16;5055941;28;45539;-78
2022/07/12 14:05:05;;;;;;;;;4.00;4.00;;;;;27.91;44.10;101916.84;5055580;28;45351;-79
2022/07/12 14:07:31;;;;;;;;;5.00;5.00;;;;;27.92;44.49;101916.69;5046608;28;46499;-78
2022/07/12 14:09:57;;;;;;;;;4.33;4.33;;;;;27.92;44.16;101910.38;5055487;28;45478;-79
2022/07/12 14:12:23;;;;;;;;;3.67;3.67;;;;;27.91;44.32;101909.50;5057001;28;45340;-79
2022/07/12 14:17:33;;;;;;;;;3.33;3.33;;;;;27.96;43.95;101918.03;5053641;28;45657;-79
2022/07/12 14:19:59;;;;;;;;;5.33;5.33;;;;;27.97;43.93;101919.75;5056118;28;45558;-83
2022/07/12 14:22:24;;;;;;;;;3.33;3.33;;;;;27.99;44.20;101914.97;5056703;28;46502;-82
2022/07/12 14:24:49;;;;;;;;;3.00;3.00;;;;;28.01;43.49;101918.41;5057002;28;45356;-78
2022/07/12 14:27:15;;;;;;;;;4.67;3.33;;;;;28.01;44.23;101912.06;5053906;28;50485;-81
2022/07/12 14:29:40;;;;;;;;;4.00;4.00;;;;;28.00;43.81;101905.75;5056105;28;52255;-81
2022/07/12 14:32:05;;;;;;;;;2.67;2.67;;;;;28.02;44.19;101902.84;5056040;28;45510;-80
2022/07/12 14:34:31;;;;;;;;;6.00;4.33;;;;;28.03;43.71;101901.81;5056007;28;45525;-81
2022/07/12 14:36:56;;;;;;;;;2.00;0.67;;;;;28.02;43.95;101898.25;5053996;28;53717;-82
2022/07/12 14:39:22;;;;;;;;;4.67;3.33;;;;;28.02;44.10;101903.72;5056151;28;45371;-81
2022/07/12 14:41:47;;;;;;;;;4.00;4.00;;;;;28.01;43.58;101904.75;5056359;28;45494;-80
2022/07/12 14:44:12;;;;;;;;;7.00;4.00;;;;;27.98;44.15;101893.31;5055329;28;45558;-83
2022/07/12 14:46:38;;;;;;;;;4.00;4.00;;;;;28.01;43.85;101892.97;5055780;28;45533;-83
2022/07/12 14:49:04;;;;;;;;;5.00;3.00;;;;;28.01;44.10;101898.44;5051612;28;45851;-82
2022/07/12 14:51:30;;;;;;;;;3.00;3.00;;;;;28.01;43.83;101888.38;5056565;28;45479;-81
2022/07/12 14:53:55;;;;;;;;;4.00;4.00;;;;;28.04;44.27;101889.06;5055642;28;45562;-83
2022/07/12 14:56:20;;;;;;;;;5.00;4.00;;;;;28.01;43.96;101879.34;5055959;28;45431;-79
2022/07/12 14:58:46;;;;;;;;;5.00;4.00;;;;;28.06;44.27;101882.41;5054362;28;45443;-80
2022/07/12 15:01:11;;;;;;;;;6.00;5.00;;;;;28.07;43.46;101878.63;5054067;28;45518;-81
2022/07/12 15:03:37;;;;;;;;;2.00;2.00;;;;;28.09;43.99;101882.06;5056262;28;45386;-80
2022/07/12 15:06:03;;;;;;;;;5.00;3.00;;;;;28.08;43.84;101884.97;5051205;28;45591;-81
2022/07/12 15:08:28;;;;;;;;;3.00;3.00;;;;;28.10;43.50;101877.44;5044334;28;45550;-79
2022/07/12 15:10:54;;;;;;;;;6.00;4.00;;;;;28.09;43.53;101875.75;5045738;28;47068;-80
2022/07/12 15:13:19;;;;;;;;;3.33;3.33;;;;;28.09;44.13;101875.75;5045612;28;47071;-80
2022/07/12 15:15:45;;;;;;;;;4.33;4.33;;;;;28.09;43.91;101873.00;5046061;28;45679;-81
2022/07/12 15:18:10;;;;;;;;;4.33;3.33;;;;;28.10;43.91;101874.72;5044666;28;47399;-83
2022/07/12 15:20:35;;;;;;;;;3.00;3.00;;;;;28.10;44.21;101867.38;5042732;28;46100;-82
2022/07/12 15:23:02;;;;;;;;;4.00;4.00;;;;;28.12;43.74;101870.78;5043982;28;45621;-82
2022/07/12 15:25:28;;;;;;;;;3.33;3.33;;;;;28.12;43.51;101862.59;5044719;28;46367;-84
2022/07/12 15:27:53;;;;;;;;;3.00;3.00;;;;;28.12;43.86;101861.75;5046599;28;45655;-81
2022/07/12 15:30:19;;;;;;;;;3.67;3.67;;;;;28.13;43.37;101866.19;5043284;28;46154;-83
2022/07/12 15:32:44;;;;;;;;;3.00;3.00;;;;;28.11;44.23;101870.94;5043560;28;46072;-81
2022/07/12 15:35:10;;;;;;;;;2.67;2.67;;;;;28.11;43.78;101862.75;5043584;28;46141;-81
2022/07/12 15:37:35;;;;;;;;;3.67;3.67;;;;;28.09;44.07;101857.50;5045937;28;45632;-82
2022/07/12 15:40:01;;;;;;;;;3.67;3.67;;;;;28.09;43.50;101854.78;5041846;28;46069;-82
2022/07/12 15:42:28;;;;;;;;;4.00;2.67;;;;;28.09;43.66;101860.22;5044072;28;45731;-81
2022/07/12 15:44:53;;;;;;;;;3.00;3.00;;;;;28.10;43.46;101855.59;5043292;28;46238;-82
2022/07/12 15:47:18;;;;;;;;;3.00;3.00;;;;;28.08;43.53;101847.59;5045813;28;45351;-82
2022/07/12 15:49:44;;;;;;;;;5.67;5.00;;;;;28.11;43.59;101854.56;5043015;28;45939;-77
2022/07/12 15:54:54;;;;;;;;;2.00;2.00;;;;;28.08;44.13;101844.03;5043518;28;46290;-77
2022/07/12 15:57:20;;;;;;;;;4.67;4.67;;;;;28.08;43.70;101844.03;5044763;28;45797;-77
2022/07/12 15:59:45;;;;;;;;;2.33;2.33;;;;;28.04;43.55;101839.94;5045276;28;45548;-77
2022/07/12 16:02:10;;;;;;;;;4.00;4.00;;;;;28.06;43.48;101846.91;5043370;28;46067;-79
2022/07/12 16:04:36;;;;;;;;;2.00;2.00;;;;;28.07;43.88;101847.78;5047022;28;46291;-80
2022/07/12 16:07:02;;;;;;;;;2.33;2.33;;;;;28.08;44.11;101841.28;5046850;28;46233;-81
2022/07/12 16:09:28;;;;;;;;;3.33;3.33;;;;;28.08;43.34;101838.56;5051944;28;45607;-86
2022/07/12 16:11:54;;;;;;;;;4.00;4.00;;;;;28.09;43.99;101838.41;5043556;28;45706;-82
2022/07/12 16:14:19;;;;;;;;;3.67;3.67;;;;;28.08;44.09;101836.66;5045471;28;45482;-80
2022/07/12 16:16:44;;;;;;;;;4.00;2.67;;;;;28.08;43.49;101841.28;5052111;28;45811;-80
2022/07/12 16:19:10;;;;;;;;;3.00;3.00;;;;;28.06;43.89;101846.91;5056366;28;45495;-79
2022/07/12 16:21:35;;;;;;;;;3.00;3.00;;;;;28.07;43.68;101845.06;5054521;28;45464;-78
2022/07/12 16:24:00;;;;;;;;;4.00;2.67;;;;;28.06;43.83;101849.66;5053916;28;45999;-81
2022/07/12 16:26:26;;;;;;;;;4.00;4.00;;;;;28.07;43.52;101847.78;5056043;28;45387;-78
2022/07/12 16:28:51;;;;;;;;;4.00;4.00;;;;;28.08;43.69;101839.41;5054845;28;45846;-82
2022/07/12 16:31:17;;;;;;;;;3.00;3.00;;;;;28.14;43.50;101840.59;5054258;28;45380;-79
2022/07/12 16:33:42;;;;;;;;;2.00;2.00;;;;;28.14;43.96;101838.72;5055399;28;45997;-77
2022/07/12 16:36:08;;;;;;;;;4.67;3.00;;;;;28.14;44.16;101840.59;5053829;28;45372;-78
2022/07/12 16:38:33;;;;;;;;;4.00;4.00;;;;;28.15;44.00;101840.44;5054590;28;44936;-80
2022/07/12 16:40:59;;;;;;;;;3.67;3.67;;;;;28.17;44.00;101829.34;5054284;28;45445;-80
2022/07/12 16:43:24;;;;;;;;;2.67;2.67;;;;;28.17;43.54;101840.25;5054802;28;47044;-78
2022/07/12 16:45:50;;;;;;;;;2.00;2.00;;;;;28.17;43.61;101837.53;5054123;28;45309;-80
2022/07/12 16:48:16;;;;;;;;;3.00;3.00;;;;;28.19;43.34;101840.09;5055884;28;45441;-78
2022/07/12 16:50:41;;;;;;;;;3.00;3.00;;;;;28.19;43.73;101830.00;5052519;28;45395;-77
2022/07/12 16:53:07;;;;;;;;;2.00;2.00;;;;;28.21;43.87;101833.44;5053618;28;46056;-77
2022/07/12 16:55:33;;;;;;;;;3.00;2.33;;;;;28.23;43.23;101831.38;5054897;28;45383;-77
2022/07/12 16:57:59;;;;;;;;;3.33;3.33;;;;;28.23;43.68;101831.38;5053562;28;45461;-77
2022/07/12 17:00:24;;;;;;;;;3.00;3.00;;;;;28.27;43.67;101826.44;5054656;28;45602;-78
2022/07/12 17:02:49;;;;;;;;;3.33;3.33;;;;;28.29;43.26;101827.13;5054931;28;45448;-77
2022/07/12 17:05:15;;;;;;;;;2.67;2.67;;;;;28.32;43.03;101828.66;5053648;28;45435;-79
2022/07/12 17:07:41;;;;;;;;;1.33;1.33;;;;;28.29;43.26;101818.94;5046519;28;45432;-82
2022/07/12 17:10:07;;;;;;;;;4.67;4.67;;;;;28.30;43.26;101828.81;5054207;28;45652;-80